EETN/TLL METAR and TAF weather

Enter ICAO airport designator
Station Type Date Time Source
EETN METAR 2019/12/16 03:20 UTC NOAA

EETN 160320Z 14007KT 9999 -RA BKN006 OVC012 02/01 Q0991 R08/290195


Station Type Date Time Source
EETN Decoded METAR 2019/12/16 03:20 UTC NOAA

Tallinn, Estonia (EETN) 59-24N 024-49E 34M
Dec 15, 2019 - 10:20 PM EST / 2019.12.16 0320 UTC
Wind: from the SE (140 degrees) at 8 MPH (7 KT):0
Visibility: greater than 7 mile(s):0
Sky conditions: overcast
Weather: light rain
Temperature: 35 F (2 C)
Windchill: 28 F (-2 C):1
Dew Point: 33 F (1 C)
Relative Humidity: 93%
Pressure (altimeter): 29.26 in. Hg (0991 hPa)
ob: EETN 160320Z 14007KT 9999 -RA BKN006 OVC012 02/01 Q0991 R08/290195
cycle: 3

Station Type Date Time Source
EETN TAF 2019/12/15 18:36 UTC NOAA

TAF TAF EETN 151730Z 1518/1618 16006KT 6000 BKN003 OVC007
TEMPO 1518/1521 2000 RADZ BR OVC002
TEMPO 1600/1605 3000 SHRA BKN005 SCT012CB OVC015
TEMPO 1605/1612 1000 SHRASN BKN002 BKN010CB OVC015
TEMPO 1612/1618 2000 SHRA BKN003 SCT012CB BKN015

Example: see airport list